Time;durP1;ratioP1;P1;durP2;ratioP2;P2;SDS_P1;SDS_P2;PMS_P1;PMS_P2;Temp;Humidity;BMP_temperature;BMP_pressure;BME280_temperature;BME280_humidity;BME280_pressure;Samples;Min_cycle;Max_cycle;Signal;HPM_P1;HPM_P2
2023/09/10 00:00:10;;;;;;;7.50;4.70;;;;;;;12.47;64.57;100555.28;106012;1257;60381;-77
2023/09/10 00:02:37;;;;;;;6.60;4.70;;;;;;;12.47;64.63;100558.30;105811;1253;60546;-76
2023/09/10 00:05:07;;;;;;;6.70;4.70;;;;;;;12.47;64.53;100560.05;106035;1257;60457;-76
2023/09/10 00:07:34;;;;;;;6.90;4.60;;;;;;;12.46;64.45;100561.60;105939;1256;72283;-74
2023/09/10 00:10:01;;;;;;;8.30;4.40;;;;;;;12.45;64.72;100559.46;105863;1257;70131;-74
2023/09/10 00:12:27;;;;;;;7.40;4.30;;;;;;;12.45;64.63;100562.13;105902;1255;71547;-77
2023/09/10 00:14:54;;;;;;;7.50;5.20;;;;;;;12.45;64.62;100563.16;105771;1257;60490;-76
2023/09/10 00:17:20;;;;;;;9.40;5.10;;;;;;;12.43;64.74;100566.72;105712;1260;60483;-76
2023/09/10 00:19:47;;;;;;;6.90;4.40;;;;;;;12.40;64.67;100570.73;105832;1259;73684;-77
2023/09/10 00:22:14;;;;;;;7.20;4.50;;;;;;;12.35;64.82;100570.85;105884;1257;70259;-75
2023/09/10 00:24:41;;;;;;;7.20;4.70;;;;;;;12.35;64.84;100575.59;105879;1258;72754;-75
2023/09/10 00:27:07;;;;;;;6.50;5.00;;;;;;;12.34;64.96;100573.17;105739;1257;60587;-76
2023/09/10 00:29:34;;;;;;;7.60;4.20;;;;;;;12.31;65.26;100572.39;105968;1257;60464;-74
2023/09/10 00:32:00;;;;;;;7.10;4.50;;;;;;;12.27;65.24;100575.00;105806;1258;60503;-74
2023/09/10 00:34:29;;;;;;;7.20;4.50;;;;;;;12.23;65.40;100578.35;105917;1258;70457;-75
2023/09/10 00:36:55;;;;;;;6.10;3.90;;;;;;;12.19;65.49;100575.73;105490;1261;72495;-78
2023/09/10 00:39:22;;;;;;;6.80;4.10;;;;;;;12.14;65.77;100574.64;105863;1257;60547;-75
2023/09/10 00:41:49;;;;;;;6.40;4.40;;;;;;;12.10;65.81;100575.05;106047;1255;60390;-74
2023/09/10 00:44:15;;;;;;;7.00;4.50;;;;;;;12.07;65.92;100574.19;106068;1256;60410;-72
2023/09/10 00:46:42;;;;;;;6.40;4.50;;;;;;;12.08;65.90;100573.17;106079;1258;70653;-72
2023/09/10 00:49:09;;;;;;;7.60;3.90;;;;;;;12.18;66.00;100574.26;105814;1257;73070;-76
2023/09/10 00:51:36;;;;;;;7.80;4.40;;;;;;;12.28;65.81;100578.54;105887;1260;60474;-76
2023/09/10 00:54:02;;;;;;;6.90;4.10;;;;;;;12.27;65.77;100579.23;105848;1257;60466;-77
2023/09/10 00:56:30;;;;;;;7.60;3.60;;;;;;;12.24;65.89;100583.05;105808;1258;73922;-74
2023/09/10 00:58:56;;;;;;;7.60;4.10;;;;;;;12.22;65.86;100577.23;105939;1255;70381;-76
2023/09/10 01:01:23;;;;;;;6.70;4.50;;;;;;;12.21;66.10;100574.88;105669;1260;72809;-75
2023/09/10 01:03:50;;;;;;;5.70;3.90;;;;;;;12.20;66.21;100576.08;105769;1258;60545;-75
2023/09/10 01:06:17;;;;;;;10.20;4.50;;;;;;;12.17;66.31;100576.31;105904;1255;60518;-75
2023/09/10 01:08:44;;;;;;;8.10;4.60;;;;;;;12.15;66.31;100579.17;105645;1258;73850;-75
2023/09/10 01:11:19;;;;;;;6.80;4.80;;;;;;;12.14;66.36;100581.04;105864;1256;70296;-75
2023/09/10 01:14:07;;;;;;;6.20;4.00;;;;;;;12.13;66.42;100579.22;105956;1257;73187;-75
2023/09/10 01:17:09;;;;;;;5.10;4.50;;;;;;;12.13;66.45;100578.71;105973;1254;61016;-74
2023/09/10 01:19:42;;;;;;;6.80;4.40;;;;;;;12.12;66.43;100577.23;105882;1252;60552;-77
2023/09/10 01:22:22;;;;;;;7.90;4.60;;;;;;;12.11;66.56;100576.41;105821;1253;72240;-76
2023/09/10 01:24:50;;;;;;;9.60;4.70;;;;;;;12.10;66.49;100578.67;105922;1257;69874;-75
2023/09/10 01:27:18;;;;;;;7.00;4.30;;;;;;;12.08;66.75;100580.27;105799;1259;72950;-74
2023/09/10 01:29:44;;;;;;;6.40;4.50;;;;;;;12.05;66.75;100579.73;106092;1258;60484;-74
2023/09/10 01:32:17;;;;;;;8.70;4.70;;;;;;;12.01;66.81;100578.65;106393;1252;60707;-74
2023/09/10 01:35:20;;;;;;;7.70;4.70;;;;;;;11.98;67.00;100575.38;106905;1258;72559;-73
2023/09/10 01:38:04;;;;;;;7.40;4.30;;;;;;;12.09;66.90;100580.14;107309;1259;68395;-75
2023/09/10 01:40:43;;;;;;;8.40;5.40;;;;;;;12.18;66.73;100578.75;106367;1254;71322;-74
2023/09/10 01:43:09;;;;;;;7.30;5.20;;;;;;;12.14;66.71;100580.20;106716;1257;60537;-74
2023/09/10 01:45:36;;;;;;;6.40;4.60;;;;;;;12.06;66.58;100581.04;106283;1258;60431;-75
2023/09/10 01:48:04;;;;;;;6.90;5.30;;;;;;;12.00;66.82;100580.19;107145;1254;74278;-73
2023/09/10 01:50:31;;;;;;;7.50;5.10;;;;;;;11.98;66.86;100581.63;106691;1257;70186;-74
2023/09/10 01:52:58;;;;;;;7.90;5.30;;;;;;;11.96;67.06;100582.69;105801;1257;60434;-73
2023/09/10 01:55:25;;;;;;;7.50;5.30;;;;;;;11.95;67.26;100585.64;105991;1257;60742;-73
2023/09/10 01:57:53;;;;;;;7.10;5.80;;;;;;;11.92;67.17;100583.66;105883;1258;60496;-74
2023/09/10 02:00:21;;;;;;;11.50;6.20;;;;;;;11.91;67.10;100582.88;105951;1256;73740;-74
2023/09/10 02:02:48;;;;;;;7.20;6.20;;;;;;;11.92;67.12;100582.10;105989;1255;70452;-73
2023/09/10 02:05:15;;;;;;;9.40;6.20;;;;;;;11.90;67.09;100585.27;105931;1256;72606;-74
2023/09/10 02:07:42;;;;;;;9.70;6.90;;;;;;;11.88;67.10;100583.73;105715;1258;60464;-74
2023/09/10 02:10:09;;;;;;;10.10;7.20;;;;;;;11.87;67.12;100581.98;105904;1256;60352;-74
2023/09/10 02:12:36;;;;;;;8.60;6.30;;;;;;;11.87;67.02;100583.65;105920;1257;73522;-74
2023/09/10 02:15:06;;;;;;;10.50;6.60;;;;;;;11.84;67.37;100584.34;105513;1257;70504;-75
2023/09/10 02:17:33;;;;;;;9.30;6.70;;;;;;;11.91;67.48;100583.77;105891;1256;72588;-75
2023/09/10 02:19:59;;;;;;;8.90;6.50;;;;;;;12.00;67.60;100579.25;106076;1253;60438;-74
2023/09/10 02:22:26;;;;;;;8.70;6.80;;;;;;;11.99;67.49;100576.89;105868;1254;60486;-73
2023/09/10 02:24:52;;;;;;;9.00;6.70;;;;;;;11.94;67.64;100581.67;105887;1254;73911;-73
2023/09/10 02:27:19;;;;;;;12.30;7.90;;;;;;;11.88;67.86;100576.39;105786;1257;71004;-71
2023/09/10 02:29:47;;;;;;;11.00;7.10;;;;;;;11.84;68.21;100574.05;105855;1255;72598;-73
2023/09/10 02:32:13;;;;;;;9.60;7.40;;;;;;;11.77;68.28;100575.77;105856;1256;60555;-72
2023/09/10 02:34:40;;;;;;;12.80;7.30;;;;;;;11.70;68.65;100579.77;105805;1258;60487;-74
2023/09/10 02:37:07;;;;;;;10.80;7.30;;;;;;;11.63;69.10;100576.61;105826;1258;73864;-74
2023/09/10 02:39:33;;;;;;;10.20;7.20;;;;;;;11.56;69.28;100574.98;105822;1256;60620;-71
2023/09/10 02:42:00;;;;;;;11.40;7.70;;;;;;;11.51;69.53;100575.00;105854;1254;72758;-73
2023/09/10 02:44:27;;;;;;;13.00;7.80;;;;;;;11.51;69.90;100575.20;105739;1258;62061;-74
2023/09/10 02:46:53;;;;;;;9.90;7.30;;;;;;;11.58;69.98;100577.65;105722;1258;62115;-76
2023/09/10 02:49:20;;;;;;;11.30;7.60;;;;;;;11.64;69.81;100577.05;105988;1254;73918;-75
2023/09/10 02:51:48;;;;;;;14.40;8.50;;;;;;;11.64;70.07;100577.46;105933;1253;70234;-76
2023/09/10 02:54:15;;;;;;;12.50;8.20;;;;;;;11.62;70.24;100582.97;108173;1255;72460;-73
2023/09/10 02:56:42;;;;;;;12.10;7.50;;;;;;;11.58;70.29;100583.00;108121;1254;58787;-73
2023/09/10 02:59:19;;;;;;;10.40;8.00;;;;;;;11.51;70.51;100584.73;106756;1257;60520;-74
2023/09/10 03:01:46;;;;;;;11.20;7.50;;;;;;;11.43;70.90;100585.70;105790;1257;72673;-72
2023/09/10 03:04:14;;;;;;;11.10;7.80;;;;;;;11.35;71.14;100584.04;105799;1261;70696;-76
2023/09/10 03:06:44;;;;;;;13.90;8.80;;;;;;;11.29;71.64;100582.89;105905;1257;72866;-75
2023/09/10 03:09:11;;;;;;;13.10;7.40;;;;;;;11.24;71.61;100585.33;105570;1254;62235;-76
2023/09/10 03:11:38;;;;;;;9.80;6.80;;;;;;;11.30;71.89;100590.41;105733;1254;60442;-75
2023/09/10 03:14:05;;;;;;;9.90;7.50;;;;;;;11.37;71.88;100590.23;105894;1257;60350;-76
2023/09/10 03:16:33;;;;;;;11.10;8.30;;;;;;;11.36;71.92;100586.58;105915;1259;70153;-76
2023/09/10 03:19:00;;;;;;;11.70;7.80;;;;;;;11.35;72.10;100593.26;105901;1255;72381;-76
2023/09/10 03:21:27;;;;;;;12.50;7.90;;;;;;;11.37;72.22;100590.36;105888;1255;60714;-75
2023/09/10 03:23:54;;;;;;;13.60;8.30;;;;;;;11.42;72.43;100595.23;105768;1252;60352;-76
2023/09/10 03:26:21;;;;;;;12.60;7.70;;;;;;;11.45;72.21;100593.54;105822;1257;73766;-74
2023/09/10 03:28:47;;;;;;;12.20;8.00;;;;;;;11.42;72.20;100593.81;105566;1254;70577;-75
2023/09/10 03:31:14;;;;;;;11.30;7.80;;;;;;;11.34;72.29;100596.41;105592;1254;73097;-74
2023/09/10 03:33:41;;;;;;;11.10;7.60;;;;;;;11.33;72.55;100597.69;105665;1254;62026;-74
2023/09/10 03:36:09;;;;;;;11.30;8.40;;;;;;;11.36;72.64;100597.63;105840;1257;60384;-75
2023/09/10 03:38:36;;;;;;;11.70;8.40;;;;;;;11.36;72.93;100597.10;105550;1258;73559;-75
2023/09/10 03:41:03;;;;;;;13.90;9.20;;;;;;;11.34;73.05;100601.67;106068;1255;69348;-75
2023/09/10 03:43:30;;;;;;;11.00;9.10;;;;;;;11.34;73.44;100600.10;105914;1257;72687;-75
2023/09/10 03:45:57;;;;;;;12.00;9.30;;;;;;;11.31;73.86;100599.83;106094;1254;60484;-75
2023/09/10 03:48:24;;;;;;;16.80;8.30;;;;;;;11.32;74.32;100605.27;105653;1256;60537;-74
2023/09/10 03:50:51;;;;;;;10.60;7.80;;;;;;;11.42;74.33;100599.83;106251;1257;74200;-74
2023/09/10 03:53:17;;;;;;;10.30;8.50;;;;;;;11.52;74.20;100598.15;106495;1253;70624;-75
2023/09/10 03:55:44;;;;;;;12.60;8.80;;;;;;;11.57;74.60;100602.42;106309;1256;71274;-76
2023/09/10 03:58:12;;;;;;;12.40;9.10;;;;;;;11.57;74.50;100602.79;107463;1254;60737;-73
2023/09/10 04:00:38;;;;;;;10.50;8.40;;;;;;;11.52;74.67;100599.22;107827;1252;58707;-76
2023/09/10 04:03:05;;;;;;;11.40;8.40;;;;;;;11.50;74.56;100599.78;106545;1254;73132;-75
2023/09/10 04:05:32;;;;;;;10.10;8.30;;;;;;;11.48;74.85;100602.12;105712;1254;70085;-76
2023/09/10 04:07:59;;;;;;;14.20;8.40;;;;;;;11.45;75.26;100596.86;106018;1254;73223;-76
2023/09/10 04:10:27;;;;;;;11.80;8.20;;;;;;;11.57;75.01;100597.60;105871;1255;61788;-75
2023/09/10 04:12:53;;;;;;;11.90;8.80;;;;;;;11.76;74.93;100595.25;105810;1254;60517;-74
2023/09/10 04:15:20;;;;;;;11.90;8.80;;;;;;;11.87;74.93;100594.84;105820;1254;60624;-75
2023/09/10 04:17:46;;;;;;;14.40;9.50;;;;;;;11.90;74.83;100599.29;105864;1260;70325;-75
2023/09/10 04:20:13;;;;;;;12.50;8.50;;;;;;;11.93;74.92;100597.98;105812;1254;71533;-76
2023/09/10 04:22:40;;;;;;;12.80;9.20;;;;;;;11.97;74.74;100599.16;105878;1257;60438;-77
2023/09/10 04:25:07;;;;;;;12.10;9.20;;;;;;;11.99;74.39;100596.61;105717;1257;60418;-75
2023/09/10 04:30:06;;;;;;;11.80;8.50;;;;;;;12.01;74.51;100597.65;102998;1288;600302;-75
2023/09/10 04:32:34;;;;;;;11.20;8.40;;;;;;;12.11;74.53;100591.02;104882;1273;59850;-75
2023/09/10 04:35:04;;;;;;;12.40;8.40;;;;;;;12.25;74.15;100591.48;104691;1266;59309;-76
2023/09/10 04:37:33;;;;;;;10.40;8.40;;;;;;;12.35;74.08;100595.05;104626;1266;70893;-74
2023/09/10 04:40:07;;;;;;;10.80;8.50;;;;;;;12.42;73.99;100594.03;104843;1272;68742;-75
2023/09/10 04:42:35;;;;;;;10.40;8.60;;;;;;;12.48;73.76;100593.39;104698;1269;223536;-76
2023/09/10 04:45:05;;;;;;;11.80;9.20;;;;;;;12.56;73.54;100588.70;105003;1269;59385;-74
2023/09/10 04:47:33;;;;;;;15.00;10.20;;;;;;;12.64;73.37;100590.33;104994;1271;59842;-75
2023/09/10 04:50:01;;;;;;;11.30;8.90;;;;;;;12.71;73.15;100588.69;105091;1263;72305;-74
2023/09/10 04:52:29;;;;;;;12.50;9.30;;;;;;;12.77;72.91;100590.48;105259;1264;72371;-75
2023/09/10 04:54:57;;;;;;;13.50;9.50;;;;;;;12.84;72.81;100590.67;105426;1263;72681;-75
2023/09/10 04:57:25;;;;;;;13.70;9.30;;;;;;;13.02;72.51;100592.85;105558;1264;61702;-74
2023/09/10 04:59:53;;;;;;;12.10;9.10;;;;;;;13.18;72.11;100591.14;106406;1266;59647;-76
2023/09/10 05:02:20;;;;;;;12.00;8.50;;;;;;;13.27;71.86;100587.05;107396;1269;71843;-75
2023/09/10 05:04:48;;;;;;;12.10;8.60;;;;;;;13.32;71.53;100584.71;106373;1267;69350;-76
2023/09/10 05:07:16;;;;;;;10.60;8.30;;;;;;;13.36;70.80;100591.75;105091;1267;71751;-74
2023/09/10 05:09:43;;;;;;;10.20;8.70;;;;;;;13.38;70.32;100589.60;104885;1265;60927;-76
2023/09/10 05:12:11;;;;;;;12.50;9.20;;;;;;;13.43;70.32;100593.48;105828;1255;59554;-77
2023/09/10 05:14:38;;;;;;;10.50;8.80;;;;;;;13.51;70.31;100596.58;105804;1255;72121;-79
2023/09/10 05:17:06;;;;;;;14.00;8.60;;;;;;;13.61;70.07;100597.65;105752;1258;68682;-76
2023/09/10 05:19:33;;;;;;;10.90;8.20;;;;;;;13.71;69.65;100596.20;105755;1253;71334;-75
2023/09/10 05:22:04;;;;;;;10.20;7.70;;;;;;;13.77;69.15;100597.98;105835;1254;59749;-77
2023/09/10 05:24:31;;;;;;;12.50;8.30;;;;;;;13.84;68.70;100600.67;105702;1259;60037;-77
2023/09/10 05:26:59;;;;;;;7.90;7.10;;;;;;;13.90;68.56;100600.14;105974;1253;73055;-78
2023/09/10 05:29:26;;;;;;;9.30;6.80;;;;;;;13.97;68.16;100596.39;107231;1253;70149;-78
2023/09/10 05:31:53;;;;;;;9.50;6.90;;;;;;;14.01;67.83;100595.61;107920;1253;72244;-75
2023/09/10 05:34:21;;;;;;;8.40;6.60;;;;;;;14.05;67.73;100598.70;108101;1253;60412;-75
2023/09/10 05:36:50;;;;;;;12.20;7.70;;;;;;;14.16;67.41;100598.21;107741;1253;59199;-76
2023/09/10 05:39:17;;;;;;;9.10;6.80;;;;;;;14.33;67.05;100597.14;108184;1254;71866;-76
2023/09/10 05:41:44;;;;;;;8.20;6.30;;;;;;;14.50;66.53;100598.98;107452;1259;68913;-77
2023/09/10 05:44:12;;;;;;;11.70;6.80;;;;;;;14.66;66.04;100602.63;105880;1258;71489;-78
2023/09/10 05:46:41;;;;;;;11.40;7.20;;;;;;;14.80;65.47;100606.02;105870;1257;60147;-77
2023/09/10 05:49:08;;;;;;;7.60;6.10;;;;;;;14.93;65.07;100610.55;105763;1259;59638;-77
2023/09/10 05:51:36;;;;;;;7.10;5.90;;;;;;;15.05;64.62;100611.94;105652;1253;73055;-77
2023/09/10 05:54:03;;;;;;;7.30;5.80;;;;;;;15.12;64.17;100615.48;105703;1253;69026;-76
2023/09/10 05:56:31;;;;;;;7.00;4.80;;;;;;;15.19;63.81;100613.49;105602;1254;72726;-76
2023/09/10 05:58:58;;;;;;;6.70;4.40;;;;;;;15.30;62.58;100614.22;105752;1253;60033;-77
2023/09/10 06:01:26;;;;;;;6.30;4.70;;;;;;;15.45;61.83;100613.91;105868;1253;60014;-77
2023/09/10 06:03:53;;;;;;;7.60;4.50;;;;;;;15.60;60.95;100612.83;107543;1253;71735;-77
2023/09/10 06:06:21;;;;;;;10.20;5.00;;;;;;;15.75;60.37;100615.81;108678;1253;69054;-76
2023/09/10 06:08:48;;;;;;;10.40;5.10;;;;;;;15.89;60.03;100609.30;107164;1256;71090;-78
2023/09/10 06:11:16;;;;;;;7.30;5.30;;;;;;;16.02;59.53;100610.98;105950;1253;59717;-76
2023/09/10 06:13:43;;;;;;;7.50;5.50;;;;;;;16.14;59.27;100612.03;105871;1258;59623;-76
2023/09/10 06:16:10;;;;;;;6.00;5.00;;;;;;;16.23;58.80;100615.05;105585;1260;73015;-76
2023/09/10 06:18:38;;;;;;;7.60;4.90;;;;;;;16.30;58.33;100617.30;105642;1256;69225;-76
2023/09/10 06:21:06;;;;;;;9.40;5.20;;;;;;;16.38;58.33;100619.83;105710;1253;71678;-74
2023/09/10 06:23:33;;;;;;;9.10;5.20;;;;;;;16.47;58.07;100622.60;105731;1258;59723;-76
2023/09/10 06:26:06;;;;;;;7.30;5.30;;;;;;;16.57;57.60;100622.99;105696;1253;59706;-77
2023/09/10 06:28:39;;;;;;;6.60;4.60;;;;;;;16.66;56.99;100621.41;105525;1258;73065;-76
2023/09/10 06:31:08;;;;;;;7.90;4.40;;;;;;;16.71;56.48;100621.83;105723;1260;69003;-76
2023/09/10 06:33:36;;;;;;;8.30;4.50;;;;;;;16.77;55.90;100622.21;105591;1258;72688;-76
2023/09/10 06:36:04;;;;;;;8.10;5.40;;;;;;;16.83;55.89;100619.85;105852;1254;60087;-77
2023/09/10 06:38:32;;;;;;;5.80;5.00;;;;;;;16.89;56.08;100620.09;106318;1253;59810;-77
2023/09/10 06:40:59;;;;;;;7.60;5.30;;;;;;;16.95;55.73;100620.28;105972;1253;72452;-77
2023/09/10 06:43:26;;;;;;;8.80;5.70;;;;;;;16.99;55.40;100620.98;105932;1253;70499;-77
2023/09/10 06:46:06;;;;;;;7.50;5.70;;;;;;;17.05;55.70;100625.69;105878;1254;71520;-77
2023/09/10 06:48:34;;;;;;;8.60;5.20;;;;;;;17.10;55.82;100621.75;105828;1253;60036;-76
2023/09/10 06:51:02;;;;;;;7.40;5.20;;;;;;;17.16;55.87;100623.77;105874;1253;59686;-77
2023/09/10 06:53:29;;;;;;;10.00;5.80;;;;;;;17.21;55.56;100625.40;107818;1253;72378;-76
2023/09/10 06:55:57;;;;;;;8.20;4.60;;;;;;;17.28;55.20;100620.90;107032;1253;68859;-78
2023/09/10 06:58:24;;;;;;;7.30;5.20;;;;;;;17.37;54.42;100622.94;105941;1254;71789;-77
2023/09/10 07:00:52;;;;;;;5.50;4.80;;;;;;;17.42;54.15;100623.15;105957;1254;59632;-76
2023/09/10 07:03:19;;;;;;;8.10;5.20;;;;;;;17.49;54.05;100614.82;106094;1253;59618;-76
2023/09/10 07:05:46;;;;;;;7.20;4.70;;;;;;;17.56;53.76;100618.23;106374;1253;71841;-76
2023/09/10 07:08:14;;;;;;;16.40;6.10;;;;;;;17.63;53.38;100615.37;107432;1253;69388;-77
2023/09/10 07:10:42;;;;;;;9.40;5.10;;;;;;;17.66;53.60;100615.89;107728;1253;71070;-77
2023/09/10 07:13:09;;;;;;;7.50;4.10;;;;;;;17.67;53.60;100611.98;107259;1257;59571;-77
2023/09/10 07:15:37;;;;;;;4.70;3.70;;;;;;;17.72;52.80;100610.81;106097;1252;60053;-75
2023/09/10 07:18:05;;;;;;;4.30;3.30;;;;;;;17.79;52.29;100609.96;106041;1255;73032;-76
2023/09/10 07:20:32;;;;;;;4.80;3.40;;;;;;;17.89;52.00;100609.66;105841;1258;71429;-76
2023/09/10 07:22:59;;;;;;;5.70;4.10;;;;;;;17.96;51.94;100612.66;105767;1255;72876;-76
2023/09/10 07:25:27;;;;;;;4.50;3.10;;;;;;;18.04;51.77;100615.44;105689;1254;60079;-78
2023/09/10 07:27:56;;;;;;;6.60;4.80;;;;;;;18.11;51.67;100614.86;105833;1258;59562;-76
2023/09/10 07:30:23;;;;;;;5.10;4.10;;;;;;;18.19;51.82;100612.27;105929;1253;71226;-77
2023/09/10 07:32:51;;;;;;;5.20;3.90;;;;;;;18.26;51.75;100616.13;106493;1253;69988;-78
2023/09/10 07:35:19;;;;;;;5.40;3.70;;;;;;;18.30;51.38;100618.09;106248;1254;71520;-76
2023/09/10 07:37:46;;;;;;;5.90;3.80;;;;;;;18.32;51.29;100615.88;106126;1253;59690;-76
2023/09/10 07:40:14;;;;;;;5.40;4.20;;;;;;;18.32;50.96;100617.61;106156;1253;59699;-78
2023/09/10 07:42:42;;;;;;;4.10;3.20;;;;;;;18.32;50.52;100617.98;105834;1253;71847;-77
2023/09/10 07:45:14;;;;;;;4.20;3.40;;;;;;;18.34;50.21;100616.66;105885;1258;70121;-75
2023/09/10 07:47:41;;;;;;;2.80;2.50;;;;;;;18.36;49.86;100615.07;105912;1256;71658;-78
2023/09/10 07:50:09;;;;;;;3.00;2.40;;;;;;;18.39;49.24;100615.34;105930;1254;60087;-76
2023/09/10 07:52:37;;;;;;;3.00;2.70;;;;;;;18.46;49.01;100614.02;106028;1256;60093;-76
2023/09/10 07:55:05;;;;;;;4.40;2.50;;;;;;;18.54;48.98;100609.58;105749;1258;72983;-77
2023/09/10 07:57:32;;;;;;;3.20;2.50;;;;;;;18.65;48.75;100608.84;105466;1257;69350;-77
2023/09/10 08:00:00;;;;;;;5.90;2.90;;;;;;;18.76;48.38;100611.52;105670;1254;71760;-76
2023/09/10 08:02:37;;;;;;;4.60;2.10;;;;;;;18.88;47.86;100608.89;105397;1254;60079;-76
2023/09/10 08:05:06;;;;;;;2.30;1.90;;;;;;;18.96;47.11;100606.44;105521;1258;60372;-76
2023/09/10 08:07:33;;;;;;;3.70;1.80;;;;;;;19.00;47.17;100604.73;105575;1253;73307;-78
2023/09/10 08:10:01;;;;;;;3.50;1.90;;;;;;;19.06;46.89;100610.73;105834;1253;70543;-77
2023/09/10 08:12:28;;;;;;;1.70;1.60;;;;;;;19.12;46.50;100608.10;107519;1253;71088;-75
2023/09/10 08:14:56;;;;;;;3.80;2.20;;;;;;;19.21;46.37;100609.77;107616;1253;59240;-77
2023/09/10 08:17:23;;;;;;;2.10;1.80;;;;;;;19.31;46.27;100606.68;106749;1253;59798;-77
2023/09/10 08:19:51;;;;;;;2.60;2.40;;;;;;;19.43;46.29;100601.31;105944;1253;73042;-76
2023/09/10 08:22:18;;;;;;;2.40;2.00;;;;;;;19.57;46.18;100600.41;105912;1253;70801;-77
2023/09/10 08:24:48;;;;;;;3.50;2.20;;;;;;;19.71;45.88;100595.71;105875;1257;71959;-77
2023/09/10 08:27:15;;;;;;;2.50;1.80;;;;;;;19.84;45.74;100595.52;105687;1253;59654;-77
2023/09/10 08:29:43;;;;;;;3.10;1.70;;;;;;;19.96;45.45;100593.61;105636;1254;59675;-75
2023/09/10 08:32:10;;;;;;;4.50;2.30;;;;;;;20.07;45.23;100593.01;105892;1253;72087;-77
2023/09/10 08:34:37;;;;;;;2.90;2.30;;;;;;;20.19;45.17;100591.08;105895;1252;68586;-77
2023/09/10 08:37:09;;;;;;;3.40;1.80;;;;;;;20.29;45.02;100595.46;105919;1257;71739;-76
2023/09/10 08:39:37;;;;;;;2.60;2.10;;;;;;;20.40;44.91;100586.88;105899;1254;60455;-76
2023/09/10 08:42:16;;;;;;;3.20;1.80;;;;;;;20.54;44.54;100589.81;105835;1253;60548;-78
2023/09/10 08:44:44;;;;;;;2.50;2.20;;;;;;;20.67;44.38;100588.05;105863;1259;73948;-77
2023/09/10 08:47:11;;;;;;;3.00;1.80;;;;;;;20.82;44.22;100585.66;105743;1260;70179;-76
2023/09/10 08:49:41;;;;;;;3.60;1.90;;;;;;;20.99;44.12;100585.08;105758;1258;71413;-76
2023/09/10 08:52:08;;;;;;;2.40;2.10;;;;;;;21.19;43.82;100587.73;105732;1258;60501;-77
2023/09/10 08:54:36;;;;;;;2.50;2.30;;;;;;;21.38;43.14;100586.54;105771;1253;60899;-76
2023/09/10 08:57:04;;;;;;;2.30;1.70;;;;;;;21.55;43.05;100584.04;105411;1253;73814;-77
2023/09/10 08:59:31;;;;;;;5.60;2.30;;;;;;;21.76;42.18;100580.36;105346;1253;70338;-78
2023/09/10 09:01:59;;;;;;;1.90;1.70;;;;;;;21.95;42.11;100580.90;105799;1253;72338;-76
2023/09/10 09:04:26;;;;;;;2.70;2.00;;;;;;;22.26;41.78;100580.02;105822;1254;60556;-79
2023/09/10 09:06:54;;;;;;;4.30;2.00;;;;;;;22.70;41.26;100575.92;105739;1253;60550;-76
2023/09/10 09:09:23;;;;;;;4.40;2.40;;;;;;;23.25;40.31;100576.36;106081;1253;74377;-76
2023/09/10 09:11:50;;;;;;;2.70;2.20;;;;;;;23.82;39.36;100562.19;105914;1258;69510;-77
2023/09/10 09:14:17;;;;;;;2.60;2.40;;;;;;;24.37;38.71;100569.16;106107;1253;72713;-79
2023/09/10 09:16:47;;;;;;;2.40;2.20;;;;;;;24.95;37.88;100563.94;106448;1253;60416;-76
2023/09/10 09:19:15;;;;;;;2.60;1.80;;;;;;;25.55;37.10;100563.20;106773;1255;61357;-78
2023/09/10 09:21:43;;;;;;;2.30;2.00;;;;;;;26.13;36.40;100560.04;107061;1258;72355;-77
2023/09/10 09:24:11;;;;;;;4.70;3.50;;;;;;;26.71;35.93;100563.52;108830;1252;69224;-77
2023/09/10 09:26:39;;;;;;;2.80;2.30;;;;;;;27.31;35.05;100557.88;108246;1253;71500;-78
2023/09/10 09:29:08;;;;;;;4.90;1.90;;;;;;;27.91;34.27;100557.14;107156;1253;59612;-77
2023/09/10 09:31:36;;;;;;;3.70;2.00;;;;;;;28.40;33.77;100551.67;105806;1253;60616;-79
2023/09/10 09:34:04;;;;;;;2.50;2.10;;;;;;;28.86;32.98;100548.98;105486;1253;73807;-78
2023/09/10 09:36:36;;;;;;;2.80;2.40;;;;;;;29.29;32.24;100540.03;105821;1254;70272;-76
2023/09/10 09:39:07;;;;;;;2.70;2.50;;;;;;;29.71;31.77;100537.94;105630;1260;72643;-78
2023/09/10 09:41:35;;;;;;;2.80;2.50;;;;;;;30.12;31.16;100538.88;105630;1256;60549;-79
2023/09/10 09:44:03;;;;;;;2.40;2.10;;;;;;;30.60;30.37;100535.77;105825;1255;60359;-78
2023/09/10 09:46:32;;;;;;;2.30;2.10;;;;;;;31.03;29.97;100530.59;106027;1253;74008;-77
2023/09/10 09:49:00;;;;;;;2.80;1.90;;;;;;;31.39;29.62;100527.69;105985;1253;69996;-76
2023/09/10 09:51:28;;;;;;;2.00;1.80;;;;;;;31.75;29.20;100529.45;105457;1253;72650;-76
2023/09/10 09:53:55;;;;;;;2.60;2.20;;;;;;;32.11;28.60;100526.42;105755;1256;60471;-75
2023/09/10 09:56:22;;;;;;;2.70;2.30;;;;;;;32.35;28.37;100525.64;105712;1253;60527;-76
2023/09/10 09:58:50;;;;;;;3.00;1.90;;;;;;;32.71;27.82;100521.54;105796;1253;73931;-79
2023/09/10 10:01:20;;;;;;;2.20;1.90;;;;;;;33.12;27.16;100521.73;105895;1253;68964;-77
2023/09/10 10:03:48;;;;;;;2.40;2.10;;;;;;;33.47;26.97;100520.98;105749;1254;72970;-77
2023/09/10 10:06:19;;;;;;;2.10;1.90;;;;;;;33.77;26.18;100522.71;105950;1255;60540;-76
2023/09/10 10:08:50;;;;;;;2.10;1.90;;;;;;;33.68;25.43;100518.98;105281;1253;60528;-75
2023/09/10 10:11:28;;;;;;;5.80;2.40;;;;;;;33.36;25.80;100515.56;105710;1253;73966;-76
2023/09/10 10:13:59;;;;;;;3.60;2.00;;;;;;;33.47;25.96;100512.89;105934;1258;69240;-77
2023/09/10 10:16:28;;;;;;;2.40;2.20;;;;;;;33.71;25.52;100511.22;105840;1251;71617;-78
2023/09/10 10:18:56;;;;;;;2.10;1.90;;;;;;;33.81;25.30;100508.70;105916;1258;60440;-77
2023/09/10 10:21:23;;;;;;;2.30;2.00;;;;;;;33.89;25.22;100507.29;105832;1253;60518;-77
2023/09/10 10:23:51;;;;;;;2.50;2.30;;;;;;;33.87;25.42;100505.88;106021;1253;72589;-78
2023/09/10 10:26:19;;;;;;;2.50;2.10;;;;;;;33.99;25.36;100501.41;106355;1258;68865;-74
2023/09/10 10:28:49;;;;;;;2.30;2.10;;;;;;;33.97;25.56;100498.14;106706;1253;72359;-74
2023/09/10 10:31:25;;;;;;;2.60;2.40;;;;;;;34.23;25.21;100495.17;107044;1255;60404;-75
2023/09/10 10:34:04;;;;;;;2.50;2.30;;;;;;;34.76;25.05;100491.25;105714;1253;60525;-74
2023/09/10 10:36:59;;;;;;;3.90;2.30;;;;;;;35.29;24.35;100488.45;105812;1258;65038;-74
2023/09/10 10:39:53;;;;;;;2.00;1.90;;;;;;;35.75;24.04;100490.29;105864;1257;60444;-76
2023/09/10 10:43:06;;;;;;;2.80;2.20;;;;;;;36.09;23.70;100490.10;105567;1255;63936;-77
2023/09/10 10:45:33;;;;;;;2.20;1.90;;;;;;;36.30;23.33;100483.45;105761;1254;60540;-77
2023/09/10 10:48:04;;;;;;;2.60;1.70;;;;;;;36.41;23.09;100477.91;105726;1258;60451;-77
2023/09/10 10:50:34;;;;;;;5.50;2.30;;;;;;;36.47;22.85;100476.52;105681;1253;63650;-75
2023/09/10 10:53:16;;;;;;;2.30;1.90;;;;;;;36.56;22.81;100472.41;105472;1253;61501;-76
2023/09/10 10:55:43;;;;;;;2.80;1.90;;;;;;;36.45;22.58;100470.08;105458;1258;63738;-76
2023/09/10 10:58:11;;;;;;;1.90;1.80;;;;;;;36.48;22.57;100467.86;105401;1259;60389;-77
2023/09/10 11:00:38;;;;;;;3.20;1.90;;;;;;;36.76;22.48;100463.44;105657;1259;60997;-75
2023/09/10 11:03:13;;;;;;;2.50;2.20;;;;;;;37.14;22.34;100457.36;105759;1258;64993;-74
2023/09/10 11:05:53;;;;;;;2.50;2.30;;;;;;;37.51;22.24;100453.91;105914;1257;60529;-77
2023/09/10 11:08:37;;;;;;;2.20;2.10;;;;;;;37.86;21.91;100451.02;105819;1256;63731;-75
2023/09/10 11:11:09;;;;;;;2.10;2.00;;;;;;;38.21;21.89;100447.33;105660;1256;60524;-73
2023/09/10 11:14:02;;;;;;;2.20;2.00;;;;;;;38.55;21.53;100443.36;105835;1258;60464;-73
2023/09/10 11:16:30;;;;;;;2.90;2.10;;;;;;;38.98;21.09;100437.46;105798;1253;64971;-72
2023/09/10 11:18:59;;;;;;;2.20;1.90;;;;;;;39.33;20.72;100436.85;105819;1253;61336;-75
2023/09/10 11:22:05;;;;;;;2.20;2.10;;;;;;;39.48;20.26;100435.56;105824;1260;63857;-75
2023/09/10 11:24:34;;;;;;;2.20;2.00;;;;;;;39.22;20.36;100433.58;105324;1264;60519;-74